createdAt,value
2018-07-22T00:00:30.996Z,0
2018-07-22T00:01:11.503Z,0
2018-07-22T00:01:51.985Z,0
2018-07-22T00:02:32.450Z,0
2018-07-22T00:03:12.977Z,0
2018-07-22T00:03:53.461Z,0
2018-07-22T00:04:33.949Z,0
2018-07-22T00:05:14.485Z,0
2018-07-22T00:05:54.977Z,0
2018-07-22T00:06:35.413Z,0
2018-07-22T00:07:15.890Z,0
2018-07-22T00:07:56.406Z,0
2018-07-22T00:08:36.886Z,0
2018-07-22T00:09:17.405Z,0
2018-07-22T00:09:57.901Z,0
2018-07-22T00:10:38.419Z,0
2018-07-22T00:11:18.887Z,0
2018-07-22T00:11:59.396Z,0
2018-07-22T00:12:39.885Z,0
2018-07-22T00:13:20.413Z,0
2018-07-22T00:14:01.014Z,0
2018-07-22T00:14:41.485Z,0
2018-07-22T00:15:21.993Z,0
2018-07-22T00:16:02.527Z,0
2018-07-22T00:16:43.053Z,0
2018-07-22T00:17:23.549Z,0
2018-07-22T00:18:04.080Z,0
2018-07-22T00:18:44.610Z,0
2018-07-22T00:19:25.144Z,0
2018-07-22T00:20:05.643Z,0
2018-07-22T00:20:46.134Z,0
2018-07-22T00:21:26.690Z,0
2018-07-22T00:22:07.175Z,0
2018-07-22T00:22:47.688Z,0
2018-07-22T00:23:28.223Z,0
2018-07-22T00:24:08.763Z,0
2018-07-22T00:24:49.274Z,0
2018-07-22T00:25:29.791Z,0
2018-07-22T00:26:10.281Z,0
2018-07-22T00:26:50.789Z,0
2018-07-22T00:27:31.355Z,0
2018-07-22T00:28:11.880Z,0
2018-07-22T00:28:52.403Z,0
2018-07-22T00:29:32.927Z,0
2018-07-22T00:30:13.441Z,0
2018-07-22T00:30:53.944Z,0
2018-07-22T00:31:34.475Z,0
2018-07-22T00:32:15.002Z,0
2018-07-22T00:32:55.521Z,0
2018-07-22T00:33:36.048Z,0
2018-07-22T00:34:16.576Z,0
2018-07-22T00:34:57.082Z,0
2018-07-22T00:35:37.577Z,0
2018-07-22T00:36:18.076Z,0
2018-07-22T00:36:58.598Z,0
2018-07-22T00:37:39.095Z,0
2018-07-22T00:38:19.619Z,0
2018-07-22T00:39:00.130Z,0
2018-07-22T00:39:40.633Z,0
2018-07-22T00:40:21.151Z,0
2018-07-22T00:41:01.694Z,0
2018-07-22T00:41:42.206Z,0
2018-07-22T00:42:22.746Z,0
2018-07-22T00:43:03.232Z,0
2018-07-22T00:43:43.746Z,0
2018-07-22T00:44:24.242Z,0
2018-07-22T00:45:04.809Z,0
2018-07-22T00:45:45.296Z,0
2018-07-22T00:46:25.834Z,0
2018-07-22T00:47:06.307Z,0
2018-07-22T00:47:46.823Z,0
2018-07-22T00:48:27.331Z,0
2018-07-22T00:49:07.832Z,0
2018-07-22T00:49:48.362Z,0
2018-07-22T00:50:28.886Z,0
2018-07-22T00:51:09.406Z,0
2018-07-22T00:51:49.906Z,0
2018-07-22T00:52:30.421Z,0
2018-07-22T00:53:10.955Z,0
2018-07-22T00:53:51.467Z,0
2018-07-22T00:54:31.998Z,0
2018-07-22T00:55:12.498Z,0
2018-07-22T00:55:53.024Z,0
2018-07-22T00:56:33.532Z,0
2018-07-22T00:57:14.029Z,0
2018-07-22T00:57:54.519Z,0
2018-07-22T00:58:35.037Z,0
2018-07-22T00:59:15.505Z,0
2018-07-22T00:59:56.118Z,0
2018-07-22T01:00:36.507Z,0
2018-07-22T01:01:17.014Z,0
2018-07-22T01:01:57.523Z,0
2018-07-22T01:02:38.073Z,0
2018-07-22T01:03:18.561Z,0
2018-07-22T01:03:59.055Z,0
2018-07-22T01:04:39.591Z,0
2018-07-22T01:05:20.116Z,0
2018-07-22T01:06:00.633Z,0
2018-07-22T01:06:41.124Z,0
2018-07-22T01:07:21.659Z,0
2018-07-22T01:08:02.203Z,0
2018-07-22T01:08:42.710Z,0
2018-07-22T01:09:23.276Z,0
2018-07-22T01:10:03.798Z,0
2018-07-22T01:10:44.310Z,0
2018-07-22T01:11:24.821Z,0
2018-07-22T01:12:05.361Z,0
2018-07-22T01:12:45.822Z,0
2018-07-22T01:13:26.344Z,0
2018-07-22T01:14:06.870Z,0
2018-07-22T01:14:47.374Z,0
2018-07-22T01:15:27.886Z,0
2018-07-22T01:16:08.425Z,0
2018-07-22T01:16:48.962Z,0
2018-07-22T01:17:29.433Z,0
2018-07-22T01:18:09.992Z,0
2018-07-22T01:18:50.569Z,0
2018-07-22T01:19:31.119Z,0
2018-07-22T01:20:11.622Z,0
2018-07-22T01:20:52.129Z,0
2018-07-22T01:21:32.631Z,0
2018-07-22T01:22:13.105Z,0
2018-07-22T01:22:53.646Z,0
2018-07-22T01:23:34.199Z,0
2018-07-22T01:24:14.734Z,0
2018-07-22T01:24:55.230Z,0
2018-07-22T01:25:35.742Z,0
2018-07-22T01:26:16.270Z,0
2018-07-22T01:26:56.797Z,0
2018-07-22T01:27:37.301Z,0
2018-07-22T01:28:17.809Z,0
2018-07-22T01:28:58.304Z,0
2018-07-22T01:29:38.810Z,0
2018-07-22T01:30:19.279Z,0
2018-07-22T01:30:59.785Z,0
2018-07-22T01:31:40.286Z,0
2018-07-22T01:32:20.797Z,0
2018-07-22T01:33:01.275Z,0
2018-07-22T01:33:41.803Z,0
2018-07-22T01:34:22.275Z,0
2018-07-22T01:35:02.792Z,0
2018-07-22T01:35:43.385Z,0
2018-07-22T01:36:23.865Z,0
2018-07-22T01:37:04.358Z,0
2018-07-22T01:37:44.855Z,0
2018-07-22T01:38:25.383Z,0
2018-07-22T01:39:05.872Z,0
2018-07-22T01:39:46.414Z,0
2018-07-22T01:40:26.822Z,0
2018-07-22T01:41:07.413Z,0
2018-07-22T01:41:47.857Z,0
2018-07-22T01:42:28.332Z,0
2018-07-22T01:43:08.855Z,0
2018-07-22T01:43:49.422Z,0
2018-07-22T01:44:29.931Z,0
2018-07-22T01:45:10.460Z,0
2018-07-22T01:45:51.140Z,0
2018-07-22T01:46:31.677Z,0
2018-07-22T01:47:12.136Z,0
2018-07-22T01:47:52.621Z,0
2018-07-22T01:48:33.115Z,0
2018-07-22T01:49:13.623Z,0
2018-07-22T01:49:54.069Z,0
2018-07-22T01:50:34.572Z,0
2018-07-22T01:51:15.038Z,0
2018-07-22T01:51:55.563Z,0
2018-07-22T01:52:36.044Z,0
2018-07-22T01:53:16.538Z,0
2018-07-22T01:53:57.079Z,0
2018-07-22T01:54:37.587Z,0
2018-07-22T01:55:18.092Z,0
2018-07-22T01:55:58.599Z,0
2018-07-22T01:56:39.125Z,0
2018-07-22T01:57:19.670Z,0
2018-07-22T01:58:00.176Z,0
2018-07-22T01:58:40.715Z,0
2018-07-22T01:59:21.233Z,0
2018-07-22T02:00:01.762Z,0
2018-07-22T02:00:42.250Z,0
2018-07-22T02:01:22.778Z,0
2018-07-22T02:02:03.298Z,0
2018-07-22T02:02:43.842Z,0
2018-07-22T02:03:24.334Z,0
2018-07-22T02:04:04.888Z,0
2018-07-22T02:04:45.416Z,0
2018-07-22T02:05:25.939Z,0
2018-07-22T02:06:06.432Z,0
2018-07-22T02:06:46.948Z,0
2018-07-22T02:07:27.485Z,0
2018-07-22T02:08:07.997Z,0
2018-07-22T02:08:48.513Z,0
2018-07-22T02:09:29.033Z,0
2018-07-22T02:10:09.543Z,0
2018-07-22T02:10:50.029Z,0
2018-07-22T02:11:30.508Z,0
2018-07-22T02:12:11.000Z,0
2018-07-22T02:12:51.510Z,0
2018-07-22T02:13:32.007Z,0
2018-07-22T02:14:12.526Z,0
2018-07-22T02:14:53.067Z,0
2018-07-22T02:15:33.592Z,0
2018-07-22T02:16:14.083Z,0
2018-07-22T02:16:54.628Z,0
2018-07-22T02:17:35.104Z,0
2018-07-22T02:18:15.590Z,0
2018-07-22T02:18:56.078Z,0
2018-07-22T02:19:36.588Z,0
2018-07-22T02:20:17.075Z,0
2018-07-22T02:20:57.606Z,0
2018-07-22T02:21:38.060Z,0
2018-07-22T02:22:18.582Z,0
2018-07-22T02:22:59.050Z,0
2018-07-22T02:23:39.567Z,0
2018-07-22T02:24:20.061Z,0
2018-07-22T02:25:00.543Z,0
2018-07-22T02:25:41.042Z,0
2018-07-22T02:26:21.590Z,0
2018-07-22T02:27:02.094Z,0
2018-07-22T02:27:42.571Z,0
2018-07-22T02:28:23.088Z,0
2018-07-22T02:29:03.583Z,0
2018-07-22T02:29:44.136Z,0
2018-07-22T02:30:24.543Z,0
2018-07-22T02:31:05.030Z,0
2018-07-22T02:31:45.535Z,0
2018-07-22T02:32:26.043Z,0
2018-07-22T02:33:06.535Z,0
2018-07-22T02:33:47.036Z,0
2018-07-22T02:34:27.525Z,0
2018-07-22T02:35:07.961Z,0
2018-07-22T02:35:48.459Z,0
2018-07-22T02:36:28.983Z,0
2018-07-22T02:37:09.475Z,0
2018-07-22T02:37:49.961Z,0
2018-07-22T02:38:30.498Z,0
2018-07-22T02:39:11.003Z,0
2018-07-22T02:39:51.555Z,0
2018-07-22T02:40:32.013Z,0
2018-07-22T02:41:12.497Z,0
2018-07-22T02:41:53.005Z,0
2018-07-22T02:42:33.503Z,0
2018-07-22T02:43:13.997Z,0
2018-07-22T02:43:54.567Z,0
2018-07-22T02:44:36.032Z,0
2018-07-22T02:45:16.523Z,0
2018-07-22T02:45:57.034Z,0
2018-07-22T02:46:37.515Z,0
2018-07-22T02:47:18.014Z,0
2018-07-22T02:47:58.467Z,0
2018-07-22T02:48:38.989Z,0
2018-07-22T02:49:19.475Z,0
2018-07-22T02:49:59.990Z,0
2018-07-22T02:50:40.481Z,0
2018-07-22T02:51:21.015Z,0
2018-07-22T02:52:01.453Z,0
2018-07-22T02:52:41.966Z,0
2018-07-22T02:53:22.449Z,0
2018-07-22T02:54:02.943Z,0
2018-07-22T02:54:43.425Z,0
2018-07-22T02:57:11.913Z,0
2018-07-22T02:57:52.424Z,0
2018-07-22T02:58:32.941Z,0
2018-07-22T02:59:13.501Z,0
2018-07-22T02:59:54.007Z,0
2018-07-22T03:00:34.516Z,0
2018-07-22T03:01:15.051Z,0
2018-07-22T03:01:55.565Z,0
2018-07-22T03:02:36.087Z,0
2018-07-22T03:03:16.670Z,0
2018-07-22T03:03:57.104Z,0
2018-07-22T03:04:37.620Z,0
2018-07-22T03:05:18.090Z,0
2018-07-22T03:05:58.594Z,0
2018-07-22T03:06:39.055Z,0
2018-07-22T03:07:19.578Z,0
2018-07-22T03:08:00.099Z,0
2018-07-22T03:08:40.590Z,0
2018-07-22T03:09:21.049Z,0
2018-07-22T03:10:01.562Z,0
2018-07-22T03:10:42.022Z,0
2018-07-22T03:11:22.516Z,0
2018-07-22T03:12:03.009Z,0
2018-07-22T03:12:43.554Z,0
2018-07-22T03:13:24.005Z,0
2018-07-22T03:14:04.502Z,0
2018-07-22T03:14:45.007Z,0
2018-07-22T03:15:25.502Z,0
2018-07-22T03:16:06.033Z,0
2018-07-22T03:16:46.471Z,0
2018-07-22T03:17:26.952Z,0
2018-07-22T03:18:07.471Z,0
2018-07-22T03:18:48.002Z,0
2018-07-22T03:19:28.459Z,0
2018-07-22T03:20:08.920Z,0
2018-07-22T03:20:49.442Z,0
2018-07-22T03:21:30.068Z,0
2018-07-22T03:22:10.597Z,0
2018-07-22T03:22:51.097Z,0
2018-07-22T03:23:31.641Z,0
2018-07-22T03:24:12.226Z,4
2018-07-22T03:24:52.747Z,4
2018-07-22T03:25:33.260Z,4
2018-07-22T03:26:13.766Z,4
2018-07-22T03:26:54.301Z,0
2018-07-22T03:27:34.833Z,0
2018-07-22T03:28:15.356Z,4
2018-07-22T03:28:55.880Z,4
2018-07-22T03:29:36.401Z,4
2018-07-22T03:30:16.914Z,4
2018-07-22T03:30:57.416Z,4
2018-07-22T03:31:37.945Z,4
2018-07-22T03:32:18.453Z,4
2018-07-22T03:32:58.934Z,4
2018-07-22T03:33:39.447Z,4
2018-07-22T03:34:19.929Z,8
2018-07-22T03:35:00.552Z,8
2018-07-22T03:35:41.000Z,4
2018-07-22T03:36:21.461Z,8
2018-07-22T03:37:01.945Z,8
2018-07-22T03:37:42.437Z,8
2018-07-22T03:38:22.943Z,8
2018-07-22T03:39:03.476Z,8
2018-07-22T03:39:43.953Z,12
2018-07-22T03:40:24.458Z,12
2018-07-22T03:41:04.965Z,12
2018-07-22T03:41:45.507Z,12
2018-07-22T03:42:26.022Z,16
2018-07-22T03:43:06.553Z,12
2018-07-22T03:43:47.087Z,16
2018-07-22T03:44:27.589Z,16
2018-07-22T03:45:08.093Z,16
2018-07-22T03:45:48.602Z,20
2018-07-22T03:46:29.117Z,20
2018-07-22T03:47:09.639Z,20
2018-07-22T03:47:50.155Z,24
2018-07-22T03:48:30.637Z,28
2018-07-22T03:49:11.138Z,28
2018-07-22T03:49:51.585Z,28
2018-07-22T03:50:32.118Z,32
2018-07-22T03:51:12.676Z,32
2018-07-22T03:51:53.179Z,36
2018-07-22T03:52:33.699Z,40
2018-07-22T03:53:14.149Z,40
2018-07-22T03:53:54.633Z,44
2018-07-22T03:54:35.156Z,48
2018-07-22T03:55:15.670Z,48
2018-07-22T03:55:56.189Z,52
2018-07-22T03:56:36.671Z,56
2018-07-22T03:57:17.194Z,60
2018-07-22T03:57:57.687Z,64
2018-07-22T03:58:38.191Z,64
2018-07-22T03:59:18.740Z,68
2018-07-22T03:59:59.194Z,72
2018-07-22T04:00:39.722Z,76
2018-07-22T04:01:20.183Z,80
2018-07-22T04:02:00.712Z,88
2018-07-22T04:02:41.251Z,92
2018-07-22T04:03:21.747Z,100
2018-07-22T04:04:02.238Z,104
2018-07-22T04:04:42.694Z,108
2018-07-22T04:05:23.206Z,116
2018-07-22T04:06:03.712Z,124
2018-07-22T04:06:44.231Z,128
2018-07-22T04:07:24.692Z,136
2018-07-22T04:08:05.230Z,140
2018-07-22T04:08:45.690Z,148
2018-07-22T04:09:26.205Z,156
2018-07-22T04:10:06.672Z,164
2018-07-22T04:10:47.190Z,172
2018-07-22T04:11:27.687Z,180
2018-07-22T04:12:08.144Z,184
2018-07-22T04:12:48.652Z,196
2018-07-22T04:13:29.166Z,204
2018-07-22T04:14:09.677Z,208
2018-07-22T04:14:50.160Z,216
2018-07-22T04:15:30.687Z,220
2018-07-22T04:16:11.222Z,224
2018-07-22T04:16:51.748Z,232
2018-07-22T04:17:32.308Z,236
2018-07-22T04:18:12.787Z,240
2018-07-22T04:18:55.133Z,244
2018-07-22T04:19:35.602Z,248
2018-07-22T04:20:16.130Z,256
2018-07-22T04:20:56.630Z,260
2018-07-22T04:21:37.171Z,264
2018-07-22T04:22:17.639Z,272
2018-07-22T04:22:58.193Z,280
2018-07-22T04:23:38.685Z,288
2018-07-22T04:24:19.138Z,292
2018-07-22T04:24:59.683Z,304
2018-07-22T04:25:40.138Z,312
2018-07-22T04:26:20.614Z,320
2018-07-22T04:27:01.138Z,328
2018-07-22T04:27:41.610Z,340
2018-07-22T04:28:22.124Z,348
2018-07-22T04:29:02.627Z,356
2018-07-22T04:29:43.147Z,360
2018-07-22T04:30:23.708Z,368
2018-07-22T04:31:04.240Z,372
2018-07-22T04:31:44.730Z,372
2018-07-22T04:32:25.257Z,368
2018-07-22T04:33:05.750Z,368
2018-07-22T04:33:46.267Z,364
2018-07-22T04:34:26.781Z,360
2018-07-22T04:35:07.305Z,360
2018-07-22T04:35:47.796Z,360
2018-07-22T04:36:28.264Z,368
2018-07-22T04:37:08.776Z,372
2018-07-22T04:37:49.282Z,376
2018-07-22T04:38:29.768Z,380
2018-07-22T04:39:10.258Z,388
2018-07-22T04:39:50.757Z,392
2018-07-22T04:40:31.253Z,400
2018-07-22T04:41:11.795Z,404
2018-07-22T04:41:52.288Z,412
2018-07-22T04:42:32.806Z,416
2018-07-22T04:43:13.265Z,424
2018-07-22T04:43:53.784Z,432
2018-07-22T04:44:34.247Z,440
2018-07-22T04:45:14.786Z,448
2018-07-22T04:45:55.274Z,460
2018-07-22T04:46:35.785Z,472
2018-07-22T04:47:16.300Z,488
2018-07-22T04:47:56.800Z,508
2018-07-22T04:48:37.333Z,524
2018-07-22T04:49:17.844Z,544
2018-07-22T04:49:58.357Z,556
2018-07-22T04:50:38.893Z,576
2018-07-22T04:51:19.404Z,584
2018-07-22T04:51:59.905Z,596
2018-07-22T04:52:40.395Z,612
2018-07-22T04:53:20.860Z,628
2018-07-22T04:54:01.445Z,652
2018-07-22T04:54:41.980Z,672
2018-07-22T04:55:22.448Z,692
2018-07-22T04:56:02.981Z,712
2018-07-22T04:56:43.488Z,728
2018-07-22T04:57:23.990Z,740
2018-07-22T04:58:04.517Z,752
2018-07-22T04:58:44.996Z,768
2018-07-22T04:59:25.501Z,796
2018-07-22T05:00:06.017Z,828
2018-07-22T05:00:46.513Z,856
2018-07-22T05:01:26.992Z,888
2018-07-22T05:02:07.509Z,912
2018-07-22T05:02:48.016Z,924
2018-07-22T05:03:28.561Z,936
2018-07-22T05:04:09.056Z,948
2018-07-22T05:04:49.533Z,956
2018-07-22T05:05:30.030Z,968
2018-07-22T05:06:10.523Z,972
2018-07-22T05:06:51.032Z,980
2018-07-22T05:07:31.557Z,988
2018-07-22T05:08:12.079Z,992
2018-07-22T05:08:52.597Z,1000
2018-07-22T05:09:33.174Z,1004
2018-07-22T05:10:13.586Z,1008
2018-07-22T05:10:54.081Z,1008
2018-07-22T05:11:34.588Z,1016
2018-07-22T05:12:15.082Z,1024
2018-07-22T05:12:55.583Z,1028
2018-07-22T05:13:36.135Z,1032
2018-07-22T05:14:16.691Z,1032
2018-07-22T05:14:57.131Z,1040
2018-07-22T05:15:37.652Z,1040
2018-07-22T05:16:18.130Z,1040
2018-07-22T05:16:58.633Z,1040
2018-07-22T05:17:39.172Z,1036
2018-07-22T05:18:19.651Z,1028
2018-07-22T05:19:00.174Z,1020
2018-07-22T05:19:40.680Z,1016
2018-07-22T05:20:21.182Z,1012
2018-07-22T05:21:01.694Z,1000
2018-07-22T05:21:42.183Z,996
2018-07-22T05:22:22.724Z,996
2018-07-22T05:23:03.193Z,996
2018-07-22T05:23:43.700Z,996
2018-07-22T05:24:24.237Z,1008
2018-07-22T05:25:04.677Z,1008
2018-07-22T05:25:45.155Z,1004
2018-07-22T05:26:25.670Z,1000
2018-07-22T05:27:06.166Z,988
2018-07-22T05:27:46.783Z,976
2018-07-22T05:28:27.335Z,972
2018-07-22T05:29:07.859Z,964
2018-07-22T05:29:48.560Z,964
2018-07-22T05:30:29.078Z,968
2018-07-22T05:31:09.589Z,960
2018-07-22T05:31:50.082Z,960
2018-07-22T05:32:30.569Z,960
2018-07-22T05:33:11.095Z,956
2018-07-22T05:33:51.623Z,952
2018-07-22T05:34:32.121Z,952
2018-07-22T05:35:12.656Z,956
2018-07-22T05:35:53.169Z,956
2018-07-22T05:36:33.640Z,956
2018-07-22T05:37:14.159Z,960
2018-07-22T05:37:54.662Z,960
2018-07-22T05:38:35.173Z,968
2018-07-22T05:39:15.662Z,972
2018-07-22T05:39:56.161Z,968
2018-07-22T05:40:36.652Z,980
2018-07-22T05:41:17.151Z,984
2018-07-22T05:41:57.663Z,992
2018-07-22T05:42:38.163Z,1004
2018-07-22T05:43:18.661Z,1020
2018-07-22T05:43:59.277Z,1036
2018-07-22T05:44:39.778Z,1052
2018-07-22T05:45:20.275Z,1072
2018-07-22T05:46:00.814Z,1092
2018-07-22T05:46:41.289Z,1112
2018-07-22T05:47:21.831Z,1124
2018-07-22T05:48:02.342Z,1136
2018-07-22T05:48:42.815Z,1140
2018-07-22T05:49:23.276Z,1140
2018-07-22T05:50:03.774Z,1144
2018-07-22T05:50:44.320Z,1140
2018-07-22T05:51:24.810Z,1136
2018-07-22T05:52:05.330Z,1128
2018-07-22T05:52:45.799Z,1124
2018-07-22T05:53:26.292Z,1108
2018-07-22T05:54:06.905Z,1100
2018-07-22T05:54:47.278Z,1084
2018-07-22T05:55:27.785Z,1076
2018-07-22T05:56:08.292Z,1068
2018-07-22T05:56:48.846Z,1060
2018-07-22T05:57:29.299Z,1056
2018-07-22T05:58:09.811Z,1056
2018-07-22T05:58:50.337Z,1060
2018-07-22T05:59:30.828Z,1068
2018-07-22T06:00:11.299Z,1092
2018-07-22T06:00:51.820Z,1108
2018-07-22T06:01:32.350Z,1132
2018-07-22T06:02:12.855Z,1156
2018-07-22T06:02:53.341Z,1176
2018-07-22T06:03:33.863Z,1208
2018-07-22T06:04:14.345Z,1236
2018-07-22T06:04:54.860Z,1260
2018-07-22T06:05:35.409Z,1288
2018-07-22T06:06:15.853Z,1320
2018-07-22T06:06:56.383Z,1356
2018-07-22T06:07:36.928Z,1388
2018-07-22T06:08:17.395Z,1432
2018-07-22T06:08:57.903Z,1476
2018-07-22T06:09:38.413Z,1520
2018-07-22T06:10:18.910Z,1568
2018-07-22T06:10:59.388Z,1620
2018-07-22T06:11:39.900Z,1680
2018-07-22T06:12:20.417Z,1748
2018-07-22T06:13:02.566Z,1824
2018-07-22T06:13:43.064Z,1908
2018-07-22T06:14:23.552Z,1996
2018-07-22T06:15:04.099Z,2088
2018-07-22T06:15:44.600Z,2180
2018-07-22T06:16:25.051Z,2276
2018-07-22T06:17:05.561Z,2376
2018-07-22T06:17:46.050Z,2460
2018-07-22T06:18:26.547Z,2548
2018-07-22T06:19:07.085Z,2640
2018-07-22T06:19:47.602Z,2728
2018-07-22T06:20:28.137Z,2816
2018-07-22T06:21:08.589Z,2908
2018-07-22T06:21:49.121Z,3000
2018-07-22T06:22:29.618Z,3100
2018-07-22T06:23:10.102Z,3200
2018-07-22T06:23:50.618Z,3304
2018-07-22T06:24:31.142Z,3400
2018-07-22T06:25:11.614Z,3512
2018-07-22T06:25:52.173Z,3640
2018-07-22T06:26:32.682Z,3784
2018-07-22T06:27:13.196Z,3928
2018-07-22T06:27:53.678Z,4092
2018-07-22T06:28:34.177Z,4260
2018-07-22T06:29:14.685Z,4424
2018-07-22T06:29:55.205Z,4576
2018-07-22T06:30:35.712Z,4732
2018-07-22T06:31:16.211Z,4916
2018-07-22T06:31:57.384Z,5060
2018-07-22T06:32:37.871Z,5232
2018-07-22T06:33:18.370Z,5408
2018-07-22T06:33:58.871Z,5596
2018-07-22T06:34:39.570Z,5792
2018-07-22T06:35:20.004Z,5988
2018-07-22T06:36:00.419Z,6188
2018-07-22T06:36:40.921Z,6436
2018-07-22T06:37:21.392Z,6656
2018-07-22T06:38:01.912Z,6892
2018-07-22T06:38:42.554Z,7144
2018-07-22T06:39:23.141Z,7328
2018-07-22T06:40:03.690Z,7444
2018-07-22T06:40:44.176Z,7560
2018-07-22T06:41:24.714Z,7664
2018-07-22T06:42:05.247Z,7748
2018-07-22T06:42:45.766Z,7780
2018-07-22T06:43:26.218Z,7784
2018-07-22T06:44:06.762Z,7800
2018-07-22T06:44:47.245Z,7944
2018-07-22T06:45:27.824Z,8076
2018-07-22T06:46:08.272Z,8152
2018-07-22T06:46:48.830Z,8232
2018-07-22T06:47:29.398Z,8332
2018-07-22T06:48:09.900Z,8428
2018-07-22T06:48:50.403Z,8504
2018-07-22T06:49:30.864Z,8516
2018-07-22T06:50:11.328Z,8452
2018-07-22T06:50:51.853Z,8468
2018-07-22T06:51:32.299Z,8068
2018-07-22T06:52:12.809Z,7820
2018-07-22T06:52:53.357Z,7740
2018-07-22T06:53:33.858Z,7804
2018-07-22T06:54:14.389Z,7976
2018-07-22T06:54:54.822Z,8232
2018-07-22T06:55:35.408Z,8496
2018-07-22T06:56:15.826Z,8956
2018-07-22T06:56:56.314Z,9484
2018-07-22T06:57:36.814Z,9716
2018-07-22T06:58:17.274Z,11080
2018-07-22T06:58:57.774Z,11016
2018-07-22T06:59:38.295Z,11380
2018-07-22T07:00:18.799Z,11272
2018-07-22T07:00:59.357Z,11280
2018-07-22T07:01:39.799Z,10840
2018-07-22T07:02:20.265Z,11340
2018-07-22T07:03:00.794Z,11328
2018-07-22T07:03:41.895Z,11196
2018-07-22T07:04:21.829Z,11104
2018-07-22T07:05:02.391Z,11088
2018-07-22T07:05:42.805Z,11040
2018-07-22T07:06:23.295Z,11032
2018-07-22T07:07:03.866Z,10892
2018-07-22T07:07:44.381Z,10768
2018-07-22T07:08:24.890Z,10700
2018-07-22T07:09:05.563Z,10736
2018-07-22T07:09:46.161Z,10772
2018-07-22T07:10:26.662Z,10744
2018-07-22T07:11:07.317Z,10664
2018-07-22T07:11:47.706Z,10580
2018-07-22T07:12:28.201Z,10448
2018-07-22T07:13:08.681Z,10288
2018-07-22T07:13:49.200Z,10136
2018-07-22T07:14:29.632Z,9872
2018-07-22T07:15:10.129Z,9584
2018-07-22T07:15:50.659Z,9188
2018-07-22T07:16:31.129Z,8116
2018-07-22T07:28:04.938Z,9592
2018-07-22T07:28:44.694Z,9640
2018-07-22T07:29:25.221Z,9552
2018-07-22T07:30:05.737Z,9532
2018-07-22T07:30:46.276Z,9488
2018-07-22T07:31:26.821Z,9536
2018-07-22T07:32:07.354Z,9584
2018-07-22T07:32:48.851Z,9584
2018-07-22T07:33:29.593Z,9600
2018-07-22T07:34:10.261Z,9616
2018-07-22T07:34:50.626Z,9648
2018-07-22T07:35:31.167Z,9696
2018-07-22T07:36:11.632Z,9704
2018-07-22T07:36:52.204Z,9700
2018-07-22T07:37:32.785Z,9640
2018-07-22T07:38:13.267Z,9644
2018-07-22T07:38:53.772Z,9628
2018-07-22T07:39:34.266Z,9564
2018-07-22T07:40:14.767Z,9496
2018-07-22T07:40:56.974Z,9472
2018-07-22T07:41:36.574Z,9480
2018-07-22T07:42:19.098Z,9520
2018-07-22T07:42:59.536Z,9616
2018-07-22T07:43:41.409Z,9744
2018-07-22T07:44:21.949Z,9884
2018-07-22T07:45:02.409Z,9880
2018-07-22T07:45:42.924Z,10280
2018-07-22T07:46:23.418Z,10628
2018-07-22T07:47:03.952Z,10836
2018-07-22T07:47:44.564Z,10836
2018-07-22T07:48:25.055Z,10928
2018-07-22T07:49:05.440Z,11116
2018-07-22T07:49:45.998Z,11336
2018-07-22T07:50:26.489Z,11564
2018-07-22T07:51:07.005Z,11724
2018-07-22T07:51:47.500Z,11768
2018-07-22T07:52:28.035Z,11800
2018-07-22T07:53:08.525Z,11864
2018-07-22T07:53:49.161Z,11848
2018-07-22T07:54:29.644Z,11824
2018-07-22T07:55:10.138Z,11768
2018-07-22T07:55:50.685Z,11812
2018-07-22T07:56:31.140Z,11516
2018-07-22T07:57:11.609Z,11220
2018-07-22T07:57:52.743Z,10620
2018-07-22T07:58:33.390Z,10536
2018-07-22T07:59:13.873Z,10840
2018-07-22T07:59:54.413Z,10868
2018-07-22T08:00:34.915Z,10876
2018-07-22T08:01:15.426Z,11096
2018-07-22T08:01:56.043Z,10964
2018-07-22T08:02:36.464Z,10164
2018-07-22T08:03:17.017Z,10104
2018-07-22T08:03:57.627Z,10024
2018-07-22T08:04:38.816Z,9940
2018-07-22T08:05:19.332Z,9876
2018-07-22T08:05:59.905Z,9432
2018-07-22T08:06:41.488Z,9320
2018-07-22T08:07:22.673Z,9188
2018-07-22T08:08:03.217Z,8624
2018-07-22T08:08:43.692Z,8488
2018-07-22T08:09:24.216Z,9156
2018-07-22T08:10:04.929Z,9372
2018-07-22T08:10:45.252Z,9144
2018-07-22T08:11:25.891Z,8820
2018-07-22T08:12:06.436Z,8804
2018-07-22T08:12:46.872Z,8820
2018-07-22T08:13:27.374Z,8944
2018-07-22T08:14:07.892Z,8876
2018-07-22T08:16:21.286Z,8400
2018-07-22T08:17:01.817Z,8484
2018-07-22T08:17:42.426Z,8536
2018-07-22T08:18:23.048Z,8496
2018-07-22T08:19:03.586Z,8500
2018-07-22T08:19:44.109Z,8412
2018-07-22T08:20:24.551Z,8392
2018-07-22T08:21:05.119Z,8268
2018-07-22T08:21:45.703Z,8128
2018-07-22T08:22:26.241Z,8080
2018-07-22T08:23:06.866Z,8204
2018-07-22T08:23:47.459Z,8172
2018-07-22T08:24:27.826Z,7952
2018-07-22T08:25:08.379Z,8128
2018-07-22T08:25:48.826Z,8180
2018-07-22T08:26:29.388Z,8172
2018-07-22T08:27:09.950Z,8172
2018-07-22T08:27:51.188Z,8188
2018-07-22T08:28:33.558Z,8272
2018-07-22T08:29:14.174Z,8344
2018-07-22T08:29:54.525Z,7872
2018-07-22T08:30:35.160Z,8040
2018-07-22T08:33:15.590Z,7140
2018-07-22T08:34:01.196Z,7108
2018-07-22T08:34:42.251Z,7064
2018-07-22T08:35:23.302Z,7124
2018-07-22T08:36:04.584Z,7156
2018-07-22T08:36:53.334Z,7036
2018-07-22T08:37:33.685Z,7340
2018-07-22T08:38:14.290Z,7288
2018-07-22T08:38:54.749Z,7156
2018-07-22T08:41:15.406Z,7868
2018-07-22T08:41:55.985Z,8064
2018-07-22T08:42:36.885Z,8244
2018-07-22T08:43:17.412Z,8448
2018-07-22T08:43:57.950Z,8676
2018-07-22T08:44:38.436Z,8928
2018-07-22T08:45:19.408Z,9132
2018-07-22T08:45:59.967Z,9236
2018-07-22T08:46:40.467Z,9256
2018-07-22T08:47:21.411Z,9192
2018-07-22T08:48:01.886Z,8856
2018-07-22T08:48:42.366Z,8660
2018-07-22T08:49:22.931Z,8752
2018-07-22T08:50:03.397Z,8908
2018-07-22T08:50:44.068Z,8760
2018-07-22T08:51:24.885Z,8836
2018-07-22T08:52:07.361Z,8860
2018-07-22T08:52:48.044Z,8832
2018-07-22T08:53:28.485Z,8732
2018-07-22T08:54:09.044Z,8900
2018-07-22T08:54:49.647Z,8760
2018-07-22T08:55:30.133Z,8500
2018-07-22T08:56:10.952Z,8340
2018-07-22T08:56:51.411Z,8104
2018-07-22T08:57:31.885Z,8024
2018-07-22T09:01:58.171Z,8656
2018-07-22T09:02:38.883Z,8668
2018-07-22T09:03:19.711Z,8588
2018-07-22T09:04:00.521Z,8432
2018-07-22T09:04:42.514Z,8404
2018-07-22T09:05:21.716Z,8348
2018-07-22T09:06:10.295Z,8372
2018-07-22T09:06:52.715Z,8444
2018-07-22T09:07:34.188Z,8524
2018-07-22T09:08:14.652Z,8472
2018-07-22T09:08:56.051Z,8576
2018-07-22T09:09:37.804Z,8792
2018-07-22T09:10:23.608Z,8984
2018-07-22T09:12:52.275Z,9068
2018-07-22T09:13:32.818Z,8948
2018-07-22T09:14:16.027Z,8908
2018-07-22T09:14:56.574Z,8884
2018-07-22T09:15:37.107Z,8932
2018-07-22T09:16:17.623Z,8964
2018-07-22T09:16:58.256Z,8960
2018-07-22T09:20:19.949Z,8788
2018-07-22T09:21:00.410Z,8840
2018-07-22T09:21:40.903Z,8800
2018-07-22T09:22:21.466Z,8844
2018-07-22T09:23:01.965Z,8952
2018-07-22T09:23:42.463Z,9028
2018-07-22T09:24:23.038Z,9024
2018-07-22T09:25:03.553Z,8984
2018-07-22T09:25:44.622Z,8844
2018-07-22T09:26:25.150Z,8700
2018-07-22T09:27:05.676Z,8540
2018-07-22T09:27:46.171Z,8348
2018-07-22T09:28:26.757Z,8204
2018-07-22T09:29:07.773Z,8104
2018-07-22T09:29:48.322Z,8092
2018-07-22T09:30:29.008Z,8060
2018-07-22T09:31:11.162Z,8084
2018-07-22T09:33:09.438Z,8356
2018-07-22T09:33:49.997Z,8472
2018-07-22T09:34:30.474Z,8536
2018-07-22T09:35:11.229Z,8628
2018-07-22T09:35:58.037Z,8628
2018-07-22T09:36:40.035Z,8704
2018-07-22T09:37:20.580Z,8804
2018-07-22T09:38:02.476Z,8840
2018-07-22T09:38:43.067Z,8940
2018-07-22T09:39:24.319Z,8988
2018-07-22T09:40:04.798Z,9072
2018-07-22T09:41:49.609Z,8968
2018-07-22T09:42:30.218Z,8836
2018-07-22T09:43:10.671Z,8588
2018-07-22T09:43:52.278Z,8656
2018-07-22T09:44:32.787Z,8648
2018-07-22T09:45:13.258Z,8416
2018-07-22T09:45:54.480Z,8184
2018-07-22T09:46:34.952Z,7952
2018-07-22T09:47:16.249Z,7896
2018-07-22T09:47:56.669Z,7852
2018-07-22T09:48:37.362Z,7840
2018-07-22T09:49:18.092Z,7848
2018-07-22T09:49:58.700Z,7672
2018-07-22T09:52:27.380Z,7388
2018-07-22T09:54:45.965Z,7444
2018-07-22T09:55:26.253Z,7348
2018-07-22T09:56:09.755Z,7200
2018-07-22T09:56:50.224Z,7124
2018-07-22T09:57:30.697Z,7096